createdAt,value
2022-12-31T00:01:08.944Z,10.50
2022-12-31T00:03:37.455Z,10.60
2022-12-31T00:06:30.404Z,10.50
2022-12-31T00:09:00.331Z,10.50
2022-12-31T00:11:32.247Z,10.50
2022-12-31T00:14:03.655Z,10.50
2022-12-31T00:16:33.250Z,10.50
2022-12-31T00:19:02.219Z,10.50
2022-12-31T00:21:33.325Z,10.50
2022-12-31T00:24:01.969Z,10.60
2022-12-31T00:26:32.742Z,10.60
2022-12-31T00:29:02.303Z,10.60
2022-12-31T00:31:33.438Z,10.60
2022-12-31T00:34:01.965Z,10.60
2022-12-31T00:36:36.035Z,10.60
2022-12-31T00:39:06.651Z,10.60
2022-12-31T00:41:35.194Z,10.60
2022-12-31T00:44:03.622Z,10.60
2022-12-31T00:46:32.931Z,10.70
2022-12-31T00:49:01.017Z,10.70
2022-12-31T00:51:29.172Z,10.70
2022-12-31T00:53:58.465Z,10.80
2022-12-31T00:56:29.124Z,10.80
2022-12-31T00:58:57.542Z,10.80
2022-12-31T01:01:31.834Z,10.80
2022-12-31T01:04:10.415Z,10.80
2022-12-31T01:06:42.073Z,10.90
2022-12-31T01:09:11.768Z,10.90
2022-12-31T01:11:40.100Z,11.00
2022-12-31T01:14:16.478Z,11.00
2022-12-31T01:16:48.125Z,11.00
2022-12-31T01:19:19.203Z,11.00
2022-12-31T01:21:49.109Z,11.00
2022-12-31T01:24:17.877Z,11.00
2022-12-31T01:26:46.844Z,11.10
2022-12-31T01:29:15.567Z,11.10
2022-12-31T01:31:43.828Z,11.10
2022-12-31T01:34:12.215Z,11.10
2022-12-31T01:36:40.698Z,11.10
2022-12-31T01:39:10.338Z,11.10
2022-12-31T01:41:42.815Z,11.10
2022-12-31T01:44:13.829Z,11.00
2022-12-31T01:47:03.746Z,11.10
2022-12-31T01:49:48.931Z,11.20
2022-12-31T01:52:26.763Z,11.20
2022-12-31T01:55:10.576Z,11.30
2022-12-31T01:57:39.292Z,11.40
2022-12-31T02:00:08.261Z,11.40
2022-12-31T02:02:36.401Z,11.40
2022-12-31T02:05:13.374Z,11.50
2022-12-31T02:07:41.454Z,11.50
2022-12-31T02:10:09.710Z,11.50
2022-12-31T02:12:37.728Z,11.50
2022-12-31T02:15:06.615Z,11.50
2022-12-31T02:18:18.295Z,11.50
2022-12-31T02:21:02.308Z,11.50
2022-12-31T02:24:07.057Z,11.50
2022-12-31T02:26:53.899Z,11.50
2022-12-31T02:29:52.582Z,11.50
2022-12-31T02:32:28.663Z,11.50
2022-12-31T02:35:18.913Z,11.60
2022-12-31T02:37:51.596Z,11.60
2022-12-31T02:40:22.169Z,11.60
2022-12-31T02:42:55.272Z,11.60
2022-12-31T02:45:30.478Z,11.60
2022-12-31T02:48:10.595Z,11.60
2022-12-31T02:50:58.724Z,11.60
2022-12-31T02:53:57.589Z,11.60
2022-12-31T02:57:00.931Z,11.60
2022-12-31T02:59:56.627Z,11.70
2022-12-31T03:02:25.758Z,11.60
2022-12-31T03:04:56.020Z,11.60
2022-12-31T03:07:30.500Z,11.60
2022-12-31T03:09:58.832Z,11.60
2022-12-31T03:12:55.972Z,11.60
2022-12-31T03:15:31.520Z,11.60
2022-12-31T03:18:04.893Z,11.60
2022-12-31T03:20:57.538Z,11.60
2022-12-31T03:23:37.438Z,11.50
2022-12-31T03:26:17.022Z,11.50
2022-12-31T03:28:48.860Z,11.50
2022-12-31T03:31:17.366Z,11.50
2022-12-31T03:33:45.376Z,11.50
2022-12-31T03:36:15.804Z,11.60
2022-12-31T03:38:48.544Z,11.60
2022-12-31T03:41:20.662Z,11.60
2022-12-31T03:43:48.611Z,11.60
2022-12-31T03:46:16.647Z,11.60
2022-12-31T03:48:44.763Z,11.70
2022-12-31T03:51:12.827Z,11.70
2022-12-31T03:53:40.872Z,11.60
2022-12-31T03:56:08.956Z,11.70
2022-12-31T03:58:36.967Z,11.70
2022-12-31T04:01:05.183Z,11.70
2022-12-31T04:03:33.321Z,11.70
2022-12-31T04:06:01.366Z,11.70
2022-12-31T04:08:29.355Z,11.70
2022-12-31T04:10:57.400Z,11.70
2022-12-31T04:13:25.403Z,11.60
2022-12-31T04:15:53.418Z,11.50
2022-12-31T04:18:21.543Z,11.50
2022-12-31T04:20:49.730Z,11.40
2022-12-31T04:23:18.056Z,11.40
2022-12-31T04:25:46.046Z,11.40
2022-12-31T04:28:14.076Z,11.40
2022-12-31T04:30:42.099Z,11.40
2022-12-31T04:33:10.235Z,11.40
2022-12-31T04:35:38.371Z,11.40
2022-12-31T04:38:06.427Z,11.40
2022-12-31T04:40:34.491Z,11.50
2022-12-31T04:43:02.513Z,11.50
2022-12-31T04:45:30.509Z,11.50
2022-12-31T04:47:58.568Z,11.50
2022-12-31T04:50:26.725Z,11.50
2022-12-31T04:52:55.225Z,11.50
2022-12-31T04:55:23.548Z,11.60
2022-12-31T04:57:51.686Z,11.60
2022-12-31T05:00:20.219Z,11.60
2022-12-31T05:02:48.340Z,11.60
2022-12-31T05:05:16.711Z,11.60
2022-12-31T05:07:44.718Z,11.60
2022-12-31T05:10:14.468Z,11.50
2022-12-31T05:12:42.514Z,11.50
2022-12-31T05:15:10.806Z,11.50
2022-12-31T05:17:38.861Z,11.50
2022-12-31T05:20:07.716Z,11.40
2022-12-31T05:22:41.963Z,11.40
2022-12-31T05:25:13.084Z,11.40
2022-12-31T05:27:41.361Z,11.50
2022-12-31T05:30:10.174Z,11.50
2022-12-31T05:32:38.625Z,11.50
2022-12-31T05:35:07.227Z,11.50
2022-12-31T05:37:35.702Z,11.50
2022-12-31T05:40:04.186Z,11.50
2022-12-31T05:42:32.192Z,11.50
2022-12-31T05:45:00.210Z,11.60
2022-12-31T05:47:28.430Z,11.60
2022-12-31T05:49:56.559Z,11.60
2022-12-31T05:52:24.744Z,11.60
2022-12-31T05:54:53.883Z,11.60
2022-12-31T05:57:24.120Z,11.60
2022-12-31T05:59:54.643Z,11.60
2022-12-31T06:02:23.371Z,11.60
2022-12-31T06:04:53.770Z,11.70
2022-12-31T06:07:26.891Z,11.60
2022-12-31T06:09:55.442Z,11.70
2022-12-31T06:12:24.536Z,11.70
2022-12-31T06:14:52.563Z,11.70
2022-12-31T06:17:21.732Z,11.70
2022-12-31T06:19:51.544Z,11.70
2022-12-31T06:22:20.440Z,11.70
2022-12-31T06:24:49.582Z,11.60
2022-12-31T06:27:18.927Z,11.60
2022-12-31T06:29:47.131Z,11.60
2022-12-31T06:32:15.237Z,11.60
2022-12-31T06:34:43.241Z,11.50
2022-12-31T06:37:15.520Z,11.50
2022-12-31T06:39:43.672Z,11.50
2022-12-31T06:42:11.719Z,11.50
2022-12-31T06:44:39.675Z,11.50
2022-12-31T06:47:07.894Z,11.50
2022-12-31T06:49:38.862Z,11.40
2022-12-31T06:52:06.896Z,11.40
2022-12-31T06:54:36.108Z,11.40
2022-12-31T06:57:04.409Z,11.40
2022-12-31T06:59:32.841Z,11.40
2022-12-31T07:02:15.817Z,11.40
2022-12-31T07:04:59.112Z,11.40
2022-12-31T07:07:40.441Z,11.40
2022-12-31T07:10:38.159Z,11.40
2022-12-31T07:13:16.021Z,11.40
2022-12-31T07:16:07.637Z,11.40
2022-12-31T07:18:51.556Z,11.50
2022-12-31T07:21:29.544Z,11.50
2022-12-31T07:24:05.178Z,11.60
2022-12-31T07:26:54.283Z,11.60
2022-12-31T07:29:43.135Z,11.70
2022-12-31T07:32:11.084Z,11.70
2022-12-31T07:35:13.522Z,11.80
2022-12-31T07:37:54.630Z,11.80
2022-12-31T07:40:35.812Z,11.90
2022-12-31T07:43:19.328Z,11.90
2022-12-31T07:46:05.787Z,12.00
2022-12-31T07:48:35.341Z,12.00
2022-12-31T07:51:05.233Z,12.00
2022-12-31T07:53:39.007Z,12.00
2022-12-31T07:56:11.536Z,12.10
2022-12-31T07:58:49.574Z,12.10
2022-12-31T08:01:26.696Z,12.10
2022-12-31T08:04:06.857Z,12.20
2022-12-31T08:06:45.930Z,12.30
2022-12-31T08:09:32.663Z,12.40
2022-12-31T08:12:13.183Z,12.50
2022-12-31T08:14:48.866Z,12.60
2022-12-31T08:17:25.609Z,12.80
2022-12-31T08:20:17.539Z,12.90
2022-12-31T08:23:09.042Z,13.10
2022-12-31T08:26:00.962Z,13.30
2022-12-31T08:29:09.088Z,13.40
2022-12-31T08:32:05.527Z,13.60
2022-12-31T08:34:42.339Z,13.60
2022-12-31T08:37:16.839Z,13.70
2022-12-31T08:40:13.943Z,13.70
2022-12-31T08:43:03.322Z,13.80
2022-12-31T08:45:42.955Z,13.90
2022-12-31T08:48:19.824Z,13.90
2022-12-31T08:50:48.027Z,13.90
2022-12-31T08:53:16.126Z,13.90
2022-12-31T08:55:51.238Z,13.90
2022-12-31T08:59:05.125Z,13.80
2022-12-31T09:01:45.283Z,13.80
2022-12-31T09:04:40.469Z,13.80
2022-12-31T09:07:10.689Z,13.80
2022-12-31T09:10:00.578Z,13.70
2022-12-31T09:12:57.522Z,13.70
2022-12-31T09:15:53.742Z,13.70
2022-12-31T09:18:23.088Z,13.70
2022-12-31T09:20:52.911Z,13.80
2022-12-31T09:23:21.244Z,13.80
2022-12-31T09:26:31.966Z,13.90
2022-12-31T09:29:05.970Z,13.90
2022-12-31T09:31:58.028Z,13.90
2022-12-31T09:34:35.322Z,13.90
2022-12-31T09:37:39.626Z,14.00
2022-12-31T09:40:45.997Z,14.00
2022-12-31T09:43:43.027Z,14.10
2022-12-31T09:46:44.586Z,14.20
2022-12-31T09:49:44.064Z,14.20
2022-12-31T09:52:43.933Z,14.30
2022-12-31T09:55:48.664Z,14.30
2022-12-31T09:58:29.456Z,14.40
2022-12-31T10:01:14.726Z,14.50
2022-12-31T10:04:26.696Z,14.60
2022-12-31T10:07:13.439Z,14.60
2022-12-31T10:10:10.606Z,14.70
2022-12-31T10:13:16.107Z,14.60
2022-12-31T10:16:21.818Z,14.70
2022-12-31T10:19:12.747Z,14.80
2022-12-31T10:22:00.148Z,14.90
2022-12-31T10:24:50.537Z,15.00
2022-12-31T10:27:40.615Z,15.10
2022-12-31T10:30:18.794Z,15.10
2022-12-31T10:33:22.388Z,15.10
2022-12-31T10:36:10.622Z,15.10
2022-12-31T10:39:24.879Z,15.10
2022-12-31T10:41:58.007Z,15.10
2022-12-31T10:44:39.742Z,15.10
2022-12-31T10:47:22.464Z,15.20
2022-12-31T10:50:14.907Z,15.20
2022-12-31T10:53:16.754Z,15.30
2022-12-31T10:55:56.876Z,15.40
2022-12-31T10:58:53.445Z,15.50
2022-12-31T11:01:35.696Z,15.50
2022-12-31T11:04:09.709Z,15.50
2022-12-31T11:07:03.963Z,15.60
2022-12-31T11:09:43.115Z,15.70
2022-12-31T11:12:44.692Z,15.70
2022-12-31T11:15:15.580Z,15.70
2022-12-31T11:18:07.365Z,15.70
2022-12-31T11:21:07.492Z,15.70
2022-12-31T11:23:50.261Z,15.70
2022-12-31T11:26:57.304Z,15.80
2022-12-31T11:30:13.324Z,15.90
2022-12-31T11:33:06.010Z,15.90
2022-12-31T11:35:58.201Z,16.00
2022-12-31T11:38:50.242Z,15.90
2022-12-31T11:41:40.518Z,15.90
2022-12-31T11:44:30.304Z,15.90
2022-12-31T11:47:26.770Z,15.90
2022-12-31T11:50:16.739Z,15.90
2022-12-31T11:53:00.928Z,15.90
2022-12-31T11:55:39.587Z,15.90
2022-12-31T11:58:17.604Z,16.00
2022-12-31T12:01:05.220Z,16.00
2022-12-31T12:03:33.997Z,16.10
2022-12-31T12:06:02.013Z,16.10
2022-12-31T12:08:33.454Z,16.20
2022-12-31T12:11:08.926Z,16.20
2022-12-31T12:13:36.808Z,16.20
2022-12-31T12:16:08.883Z,16.30
2022-12-31T12:18:41.865Z,16.30
2022-12-31T12:21:21.071Z,16.30
2022-12-31T12:24:35.688Z,16.30
2022-12-31T12:27:03.620Z,16.40
2022-12-31T12:29:37.623Z,16.40
2022-12-31T12:32:18.081Z,16.50
2022-12-31T12:34:49.810Z,16.50
2022-12-31T12:37:26.001Z,16.50
2022-12-31T12:40:06.471Z,16.50
2022-12-31T12:42:51.821Z,16.60
2022-12-31T12:45:26.344Z,16.70
2022-12-31T12:48:03.602Z,16.70
2022-12-31T12:50:45.189Z,16.80
2022-12-31T12:53:32.051Z,16.80
2022-12-31T12:56:31.669Z,16.90
2022-12-31T12:59:21.617Z,16.90
2022-12-31T13:02:06.158Z,16.90
2022-12-31T13:05:03.647Z,16.90
2022-12-31T13:07:49.667Z,17.00
2022-12-31T13:10:17.598Z,17.00
2022-12-31T13:13:25.417Z,17.00
2022-12-31T13:16:11.792Z,17.00
2022-12-31T13:18:54.224Z,16.90
2022-12-31T13:21:45.275Z,16.90
2022-12-31T13:24:51.935Z,16.90
2022-12-31T13:27:35.831Z,16.90
2022-12-31T13:30:13.729Z,16.90
2022-12-31T13:32:51.134Z,16.90
2022-12-31T13:35:54.712Z,16.90
2022-12-31T13:38:35.797Z,16.90
2022-12-31T13:41:56.650Z,16.80
2022-12-31T13:44:37.415Z,16.80
2022-12-31T13:47:28.555Z,16.70
2022-12-31T13:50:01.921Z,16.70
2022-12-31T13:52:54.076Z,16.70
2022-12-31T13:55:35.390Z,16.60
2022-12-31T13:58:19.723Z,16.60
2022-12-31T14:01:15.693Z,16.60
2022-12-31T14:04:06.276Z,16.60
2022-12-31T14:07:05.773Z,16.50
2022-12-31T14:09:36.163Z,16.40
2022-12-31T14:12:27.226Z,16.30
2022-12-31T14:15:04.180Z,16.10
2022-12-31T14:18:03.276Z,16.00
2022-12-31T14:20:43.176Z,15.90
2022-12-31T14:23:36.099Z,15.80
2022-12-31T14:26:14.156Z,15.60
2022-12-31T14:28:49.136Z,15.70
2022-12-31T14:31:17.127Z,15.70
2022-12-31T14:33:56.088Z,15.70
2022-12-31T14:36:52.815Z,15.80
2022-12-31T14:39:26.393Z,15.80
2022-12-31T14:42:13.547Z,15.70
2022-12-31T14:45:06.689Z,15.70
2022-12-31T14:48:04.187Z,15.60
2022-12-31T14:50:35.020Z,15.40
2022-12-31T14:53:07.351Z,15.20
2022-12-31T14:55:40.159Z,15.20
2022-12-31T14:58:34.782Z,15.20
2022-12-31T15:01:17.090Z,15.20
2022-12-31T15:03:46.559Z,15.20
2022-12-31T15:06:33.501Z,15.20
2022-12-31T15:09:39.782Z,15.20
2022-12-31T15:12:16.734Z,15.10
2022-12-31T15:15:20.350Z,15.10
2022-12-31T15:18:06.284Z,15.00
2022-12-31T15:20:46.128Z,15.00
2022-12-31T15:23:39.229Z,14.90
2022-12-31T15:26:23.590Z,14.80
2022-12-31T15:29:05.240Z,14.70
2022-12-31T15:31:34.307Z,14.60
2022-12-31T15:34:08.021Z,14.50
2022-12-31T15:36:40.584Z,14.40
2022-12-31T15:39:31.637Z,14.30
2022-12-31T15:44:52.899Z,14.10
2022-12-31T15:47:36.274Z,14.10
2022-12-31T15:50:09.036Z,14.00
2022-12-31T15:52:43.231Z,13.90
2022-12-31T15:55:34.935Z,13.90
2022-12-31T15:58:11.372Z,13.90
2022-12-31T16:01:07.482Z,13.80
2022-12-31T16:03:36.076Z,13.80
2022-12-31T16:06:11.708Z,13.70
2022-12-31T16:08:47.535Z,13.60
2022-12-31T16:11:16.596Z,13.60
2022-12-31T16:13:49.534Z,13.50
2022-12-31T16:16:25.595Z,13.50
2022-12-31T16:18:54.317Z,13.40
2022-12-31T16:21:34.861Z,13.30
2022-12-31T16:24:25.409Z,13.20
2022-12-31T16:26:56.037Z,13.20
2022-12-31T16:29:25.211Z,13.10
2022-12-31T16:31:54.835Z,13.10
2022-12-31T16:34:28.482Z,13.00
2022-12-31T16:37:01.003Z,13.00
2022-12-31T16:39:42.079Z,13.00
2022-12-31T16:42:22.355Z,12.90
2022-12-31T16:44:52.111Z,12.70
2022-12-31T16:47:20.123Z,12.60
2022-12-31T16:49:53.285Z,12.50
2022-12-31T16:52:36.586Z,12.50
2022-12-31T16:55:09.873Z,12.40
2022-12-31T16:57:38.189Z,12.40
2022-12-31T17:00:08.041Z,12.20
2022-12-31T17:02:40.074Z,12.10
2022-12-31T17:05:19.700Z,12.00
2022-12-31T17:07:47.724Z,11.90
2022-12-31T17:10:27.419Z,11.90
2022-12-31T17:13:28.053Z,11.80
2022-12-31T17:15:49.720Z,11.80
2022-12-31T17:18:31.436Z,11.60
2022-12-31T17:21:08.441Z,11.50
2022-12-31T17:23:39.089Z,11.30
2022-12-31T17:26:25.343Z,11.20
2022-12-31T17:28:56.639Z,11.10
2022-12-31T17:31:42.261Z,11.10
2022-12-31T17:34:16.267Z,10.90
2022-12-31T17:37:14.308Z,10.90
2022-12-31T17:39:53.256Z,10.90
2022-12-31T17:42:37.617Z,10.80
2022-12-31T17:45:16.783Z,10.80
2022-12-31T17:47:49.286Z,10.70
2022-12-31T17:50:28.854Z,10.70
2022-12-31T17:53:13.639Z,10.50
2022-12-31T17:55:43.272Z,10.40
2022-12-31T17:58:29.602Z,10.30
2022-12-31T18:01:03.767Z,10.30
2022-12-31T18:03:31.753Z,10.20
2022-12-31T18:05:59.726Z,10.20
2022-12-31T18:08:27.660Z,10.10
2022-12-31T18:10:56.231Z,10.10
2022-12-31T18:13:26.459Z,10.00
2022-12-31T18:15:55.257Z,10.00
2022-12-31T18:18:26.286Z,9.90
2022-12-31T18:20:58.698Z,9.80
2022-12-31T18:23:41.408Z,9.80
2022-12-31T18:26:17.924Z,9.80
2022-12-31T18:28:46.487Z,9.80
2022-12-31T18:31:27.842Z,9.90
2022-12-31T18:34:00.989Z,9.80
2022-12-31T18:36:32.113Z,9.70
2022-12-31T18:39:00.135Z,9.60
2022-12-31T18:41:40.717Z,9.60
2022-12-31T18:44:12.742Z,9.60
2022-12-31T18:46:40.776Z,9.50
2022-12-31T18:49:09.539Z,9.50
2022-12-31T18:51:37.624Z,9.50
2022-12-31T18:54:06.312Z,9.40
2022-12-31T18:56:34.262Z,9.40
2022-12-31T18:59:03.641Z,9.40
2022-12-31T19:01:34.757Z,9.30
2022-12-31T19:04:05.016Z,9.30
2022-12-31T19:06:33.017Z,9.30
2022-12-31T19:09:01.291Z,9.30
2022-12-31T19:11:29.597Z,9.40
2022-12-31T19:13:57.498Z,9.60
2022-12-31T19:16:25.616Z,9.80
2022-12-31T19:18:53.558Z,9.90
2022-12-31T19:21:23.807Z,9.80
2022-12-31T19:23:53.251Z,9.90
2022-12-31T19:26:22.797Z,9.90
2022-12-31T19:28:51.901Z,10.10
2022-12-31T19:31:20.007Z,10.20
2022-12-31T19:33:48.143Z,10.30
2022-12-31T19:36:20.860Z,10.20
2022-12-31T19:38:48.834Z,10.20
2022-12-31T19:41:24.275Z,10.20
2022-12-31T19:43:52.235Z,10.10
2022-12-31T19:46:21.836Z,9.90
2022-12-31T19:48:49.836Z,9.70
2022-12-31T19:51:20.405Z,9.70
2022-12-31T19:53:49.983Z,9.70
2022-12-31T19:56:20.668Z,9.70
2022-12-31T19:58:48.838Z,9.60
2022-12-31T20:01:22.695Z,9.60
2022-12-31T20:03:51.635Z,9.60
2022-12-31T20:06:20.858Z,9.40
2022-12-31T20:08:48.912Z,9.30
2022-12-31T20:11:19.729Z,9.30
2022-12-31T20:13:49.407Z,9.30
2022-12-31T20:16:19.968Z,9.30
2022-12-31T20:18:49.275Z,9.30
2022-12-31T20:21:20.695Z,9.30
2022-12-31T20:23:49.324Z,9.30
2022-12-31T20:26:17.504Z,9.30
2022-12-31T20:28:45.515Z,9.30
2022-12-31T20:31:19.773Z,9.30
2022-12-31T20:33:47.835Z,9.20
2022-12-31T20:36:17.941Z,9.30
2022-12-31T20:38:46.680Z,9.40
2022-12-31T20:41:23.639Z,9.60
2022-12-31T20:43:54.706Z,9.80
2022-12-31T20:46:25.809Z,9.80
2022-12-31T20:48:57.108Z,9.90
2022-12-31T20:51:26.715Z,10.00
2022-12-31T20:54:01.668Z,10.00
2022-12-31T20:56:32.123Z,10.00
2022-12-31T20:59:00.277Z,10.00
2022-12-31T21:01:41.723Z,10.00
2022-12-31T21:04:16.922Z,9.80
2022-12-31T21:06:45.095Z,9.80
2022-12-31T21:09:13.131Z,9.70
2022-12-31T21:12:00.481Z,9.60
2022-12-31T21:14:28.517Z,9.50
2022-12-31T21:16:58.021Z,9.50
2022-12-31T21:19:29.071Z,9.40
2022-12-31T21:21:57.051Z,9.40
2022-12-31T21:24:25.093Z,9.30
2022-12-31T21:26:55.941Z,9.30
2022-12-31T21:29:24.587Z,9.30
2022-12-31T21:31:52.560Z,9.40
2022-12-31T21:34:20.545Z,9.60
2022-12-31T21:36:48.677Z,9.90
2022-12-31T21:39:16.618Z,10.00
2022-12-31T21:41:53.383Z,10.10
2022-12-31T21:44:23.346Z,10.10
2022-12-31T21:47:33.982Z,10.20
2022-12-31T21:49:45.368Z,10.40
2022-12-31T21:52:34.554Z,10.40
2022-12-31T21:55:23.840Z,10.50
2022-12-31T21:58:24.701Z,10.60
2022-12-31T22:00:59.506Z,10.80
2022-12-31T22:03:33.409Z,10.90
2022-12-31T22:06:17.254Z,11.10
2022-12-31T22:08:46.845Z,11.20
2022-12-31T22:11:16.481Z,11.20
2022-12-31T22:13:44.823Z,11.20
2022-12-31T22:16:15.149Z,11.20
2022-12-31T22:18:45.104Z,11.10
2022-12-31T22:21:19.015Z,11.10
2022-12-31T22:23:53.428Z,11.10
2022-12-31T22:26:27.292Z,10.90
2022-12-31T22:29:00.131Z,10.70
2022-12-31T22:31:31.246Z,10.60
2022-12-31T22:34:00.517Z,10.70
2022-12-31T22:36:35.872Z,10.80
2022-12-31T22:39:07.029Z,10.70
2022-12-31T22:41:35.313Z,10.80
2022-12-31T22:44:05.375Z,10.90
2022-12-31T22:46:34.325Z,10.90
2022-12-31T22:49:05.215Z,10.70
2022-12-31T22:51:54.739Z,10.60
2022-12-31T22:54:23.479Z,10.40
2022-12-31T22:56:51.806Z,10.40
2022-12-31T22:59:19.784Z,10.20
2022-12-31T23:01:47.901Z,10.20
2022-12-31T23:04:16.189Z,10.10
2022-12-31T23:06:47.092Z,10.00
2022-12-31T23:09:35.509Z,10.00
2022-12-31T23:12:08.603Z,10.00
2022-12-31T23:14:58.276Z,9.80
2022-12-31T23:17:46.872Z,9.80
2022-12-31T23:20:37.288Z,9.60
2022-12-31T23:23:12.855Z,9.60
2022-12-31T23:25:44.371Z,9.50
2022-12-31T23:28:14.228Z,9.40
2022-12-31T23:30:43.762Z,9.30
2022-12-31T23:33:19.019Z,9.30
2022-12-31T23:35:47.082Z,9.20
2022-12-31T23:38:17.711Z,9.20
2022-12-31T23:40:46.178Z,9.10
2022-12-31T23:43:21.488Z,9.00
2022-12-31T23:45:51.431Z,9.10
2022-12-31T23:48:19.651Z,9.00
2022-12-31T23:50:53.460Z,8.90
2022-12-31T23:53:23.294Z,8.70
2022-12-31T23:55:52.020Z,8.70
2022-12-31T23:58:20.295Z,8.70
